Time;durP1;ratioP1;P1;durP2;ratioP2;P2;SDS_P1;SDS_P2;PMS_P1;PMS_P2;Temp;Humidity;BMP_temperature;BMP_pressure;BME280_temperature;BME280_humidity;BME280_pressure;Samples;Min_cycle;Max_cycle;Signal;HPM_P1;HPM_P2
2023/06/04 00:00:36;;;;;;;4.10;1.90;;;;;;;13.51;100.00;102356.50;5043408;28;20029;-60
2023/06/04 00:03:01;;;;;;;5.85;1.80;;;;;;;13.52;100.00;102352.97;5044375;28;20029;-57
2023/06/04 00:05:26;;;;;;;4.03;1.90;;;;;;;13.49;100.00;102355.66;5044410;28;20017;-60
2023/06/04 00:07:52;;;;;;;10.70;1.73;;;;;;;13.47;100.00;102362.75;5044226;28;20017;-54
2023/06/04 00:10:17;;;;;;;3.63;1.92;;;;;;;13.45;100.00;102354.00;5044409;28;20468;-61
2023/06/04 00:12:43;;;;;;;2.28;1.60;;;;;;;13.47;100.00;102354.81;5044274;28;20383;-58
2023/06/04 00:15:08;;;;;;;3.15;1.75;;;;;;;13.36;100.00;102353.25;5044234;28;20101;-55
2023/06/04 00:17:33;;;;;;;2.65;1.70;;;;;;;13.30;100.00;102360.47;5043458;28;20495;-56
2023/06/04 00:19:59;;;;;;;2.22;1.60;;;;;;;13.32;100.00;102356.00;5044175;28;20108;-59
2023/06/04 00:22:24;;;;;;;2.33;1.80;;;;;;;13.31;100.00;102356.91;5044110;28;20028;-60
2023/06/04 00:24:50;;;;;;;6.38;1.83;;;;;;;13.28;100.00;102360.50;5044096;28;20324;-54
2023/06/04 00:27:15;;;;;;;2.30;1.77;;;;;;;13.23;100.00;102360.59;5044146;28;20077;-58
2023/06/04 00:29:40;;;;;;;4.95;1.83;;;;;;;13.09;100.00;102352.06;5043745;28;20025;-57
2023/06/04 00:32:06;;;;;;;3.03;1.50;;;;;;;13.09;100.00;102360.88;5044074;28;20024;-54
2023/06/04 00:34:31;;;;;;;2.63;1.67;;;;;;;13.11;100.00;102350.25;5043813;28;20048;-56
2023/06/04 00:36:57;;;;;;;5.10;1.70;;;;;;;13.06;100.00;102357.44;5043933;28;20029;-58
2023/06/04 00:39:22;;;;;;;6.97;2.05;;;;;;;12.99;100.00;102359.31;5044094;28;20032;-60
2023/06/04 00:41:47;;;;;;;4.38;1.85;;;;;;;12.97;100.00;102358.47;5043922;28;20049;-55
2023/06/04 00:44:13;;;;;;;3.28;1.45;;;;;;;12.94;100.00;102363.84;5043271;28;20025;-60
2023/06/04 00:46:38;;;;;;;6.72;1.83;;;;;;;12.89;100.00;102362.13;5044294;28;20650;-60
2023/06/04 00:49:05;;;;;;;4.32;1.60;;;;;;;12.91;100.00;102359.47;5043973;28;20380;-58
2023/06/04 00:51:31;;;;;;;1.85;1.75;;;;;;;12.86;100.00;102358.69;5025787;28;20095;-60
2023/06/04 00:53:58;;;;;;;2.67;1.55;;;;;;;12.84;100.00;102365.78;5043556;28;20021;-57
2023/06/04 00:56:23;;;;;;;2.83;1.65;;;;;;;12.81;100.00;102366.72;5044000;28;20279;-55
2023/06/04 00:58:49;;;;;;;4.93;1.58;;;;;;;12.75;100.00;102361.53;5043946;28;20017;-54
2023/06/04 01:01:23;;;;;;;2.50;2.25;;;;;;;12.67;100.00;102360.81;5043056;28;20056;-55
2023/06/04 01:03:51;;;;;;;3.60;1.80;;;;;;;12.67;100.00;102360.81;5025891;28;20340;-55
2023/06/04 01:06:26;;;;;;;6.73;1.73;;;;;;;12.66;100.00;102367.88;5044073;28;20029;-61
2023/06/04 01:08:54;;;;;;;2.28;1.67;;;;;;;12.56;100.00;102367.16;5043777;28;20379;-57
2023/06/04 01:11:39;;;;;;;1.90;1.60;;;;;;;12.58;100.00;102372.44;5027316;28;20029;-58
2023/06/04 01:14:08;;;;;;;4.88;1.95;;;;;;;12.51;100.00;102361.06;5043086;28;20494;-56
2023/06/04 01:17:09;;;;;;;2.15;1.80;;;;;;;12.44;100.00;102367.38;5043839;28;20028;-60
2023/06/04 01:19:51;;;;;;;5.70;1.80;;;;;;;12.43;100.00;102365.63;5030099;28;20613;-59
2023/06/04 01:22:38;;;;;;;1.65;1.55;;;;;;;12.42;100.00;102361.22;5044306;28;20033;-57
2023/06/04 01:25:09;;;;;;;1.90;1.67;;;;;;;12.39;100.00;102370.09;5025946;28;20490;-61
2023/06/04 01:27:35;;;;;;;2.25;1.80;;;;;;;12.36;100.00;102371.03;5026519;28;20025;-59
2023/06/04 01:30:00;;;;;;;2.15;1.38;;;;;;;12.32;100.00;102368.44;5044265;28;20596;-58
2023/06/04 01:32:26;;;;;;;4.38;1.75;;;;;;;12.26;100.00;102370.28;5047688;28;20057;-54
2023/06/04 01:34:51;;;;;;;2.55;1.67;;;;;;;12.22;100.00;102370.38;5047038;28;20063;-60
2023/06/04 01:37:18;;;;;;;7.22;2.25;;;;;;;12.20;100.00;102369.53;5029219;28;20060;-57
2023/06/04 01:39:43;;;;;;;2.95;1.77;;;;;;;12.17;100.00;102370.47;5047140;28;20083;-59
2023/06/04 01:42:08;;;;;;;6.93;2.28;;;;;;;12.12;100.00;102367.88;5047305;28;20068;-58
2023/06/04 01:44:34;;;;;;;2.22;1.83;;;;;;;12.08;100.00;102370.59;5046388;28;20021;-57
2023/06/04 01:46:59;;;;;;;7.00;1.98;;;;;;;12.08;100.00;102363.56;5046481;28;20021;-57
2023/06/04 01:49:25;;;;;;;7.50;2.03;;;;;;;11.99;100.00;102359.25;5047487;28;20414;-58
2023/06/04 01:51:51;;;;;;;2.10;1.90;;;;;;;11.96;100.00;102363.69;5046499;28;20434;-58
2023/06/04 01:54:16;;;;;;;5.82;2.05;;;;;;;11.93;100.00;102359.34;5047151;28;20025;-56
2023/06/04 01:56:42;;;;;;;1.98;1.73;;;;;;;11.90;100.00;102366.44;5047219;28;20104;-58
2023/06/04 01:59:07;;;;;;;2.47;2.00;;;;;;;11.80;100.00;102363.06;5046066;28;20033;-55
2023/06/04 02:01:34;;;;;;;2.90;1.90;;;;;;;11.83;100.00;102355.09;5046568;28;20494;-57
2023/06/04 02:03:59;;;;;;;2.85;1.77;;;;;;;11.75;100.00;102355.22;5046222;28;20107;-57
2023/06/04 02:06:29;;;;;;;3.88;2.28;;;;;;;11.76;100.00;102362.22;5046987;28;20108;-53
2023/06/04 02:08:55;;;;;;;9.30;1.75;;;;;;;11.72;100.00;102356.13;5046470;28;20028;-55
2023/06/04 02:11:20;;;;;;;3.72;2.10;;;;;;;11.72;100.00;102357.88;5046354;28;20029;-57
2023/06/04 02:13:46;;;;;;;2.75;1.98;;;;;;;11.70;100.00;102365.81;5045907;28;20024;-56
2023/06/04 02:16:11;;;;;;;3.25;1.92;;;;;;;11.69;100.00;102363.22;5046618;28;20073;-58
2023/06/04 02:18:36;;;;;;;3.08;1.75;;;;;;;11.66;100.00;102353.56;5046087;28;20374;-58
2023/06/04 02:21:02;;;;;;;2.97;2.00;;;;;;;11.69;100.00;102353.53;5046383;28;20041;-54
2023/06/04 02:23:27;;;;;;;1.95;1.75;;;;;;;11.61;100.00;102351.00;5046072;28;20414;-61
2023/06/04 02:25:53;;;;;;;3.22;1.50;;;;;;;11.61;100.00;102345.72;5046271;28;20017;-57
2023/06/04 02:28:18;;;;;;;2.78;1.70;;;;;;;11.65;100.00;102354.44;5046427;28;20025;-59
2023/06/04 02:30:45;;;;;;;6.40;1.50;;;;;;;11.62;100.00;102355.38;5045076;28;20028;-58
2023/06/04 02:33:11;;;;;;;2.30;1.70;;;;;;;11.59;100.00;102357.19;5046642;28;20028;-58
2023/06/04 02:35:37;;;;;;;2.40;1.70;;;;;;;11.58;100.00;102360.72;5046215;28;20210;-54
2023/06/04 02:38:02;;;;;;;2.63;1.40;;;;;;;11.59;100.00;102363.34;5045885;28;20024;-58
2023/06/04 02:40:27;;;;;;;1.98;1.83;;;;;;;11.56;100.00;102362.53;5045838;28;20033;-57
2023/06/04 02:42:54;;;;;;;2.90;1.67;;;;;;;11.60;100.00;102356.28;5045960;28;20017;-58
2023/06/04 02:45:20;;;;;;;3.63;1.60;;;;;;;11.49;100.00;102361.72;5026927;28;20487;-56
2023/06/04 02:47:45;;;;;;;3.60;1.80;;;;;;;11.50;100.00;102368.75;5045721;28;20098;-56
2023/06/04 02:50:11;;;;;;;2.83;1.65;;;;;;;11.48;100.00;102368.78;5045832;28;20060;-60
2023/06/04 02:52:39;;;;;;;1.85;1.63;;;;;;;11.53;100.00;102360.78;5045949;28;20038;-56
2023/06/04 02:55:06;;;;;;;3.08;1.48;;;;;;;11.51;100.00;102359.94;5045218;28;20515;-55
2023/06/04 02:57:32;;;;;;;2.53;1.70;;;;;;;11.40;100.00;102351.25;5045769;28;20143;-56
2023/06/04 02:59:57;;;;;;;5.97;1.90;;;;;;;11.32;100.00;102356.66;5044309;28;20447;-55
2023/06/04 03:02:23;;;;;;;2.92;1.83;;;;;;;11.35;100.00;102356.63;5045993;28;20021;-55
2023/06/04 03:04:51;;;;;;;7.35;1.65;;;;;;;11.36;100.00;102364.53;5027111;28;20436;-62
2023/06/04 03:07:20;;;;;;;5.47;1.80;;;;;;;11.32;100.00;102354.88;5046019;28;20317;-60
2023/06/04 03:09:46;;;;;;;3.63;1.77;;;;;;;11.31;100.00;102357.53;5045320;28;20025;-54
2023/06/04 03:12:11;;;;;;;4.15;1.70;;;;;;;11.31;100.00;102361.06;5045389;28;20155;-61
2023/06/04 03:14:36;;;;;;;2.42;1.58;;;;;;;11.30;100.00;102361.97;5044668;28;20040;-58
2023/06/04 03:17:10;;;;;;;2.30;1.48;;;;;;;11.34;100.00;102363.66;5045274;28;20025;-58
2023/06/04 03:19:40;;;;;;;4.07;1.75;;;;;;;11.26;100.00;102360.25;5045615;28;20029;-58
2023/06/04 03:22:06;;;;;;;4.22;1.80;;;;;;;11.32;100.00;102359.31;5045433;28;20221;-60
2023/06/04 03:24:39;;;;;;;2.90;1.50;;;;;;;11.38;100.00;102360.09;5045483;28;20063;-59
2023/06/04 03:27:05;;;;;;;6.97;2.10;;;;;;;11.36;100.00;102361.88;5044726;28;20027;-59
2023/06/04 03:29:35;;;;;;;4.90;1.77;;;;;;;11.37;100.00;102363.63;5044780;28;20091;-59
2023/06/04 03:32:00;;;;;;;;;;;;;;;11.43;100.00;102351.22;5046357;28;20059;-52
2023/06/04 03:34:26;;;;;;;3.53;1.70;;;;;;;11.38;100.00;102362.72;5046519;28;19956;-55
2023/06/04 03:36:52;;;;;;;1.90;1.70;;;;;;;11.35;100.00;102352.22;5044730;28;20032;-58
2023/06/04 03:39:17;;;;;;;4.68;1.90;;;;;;;11.35;100.00;102354.00;5045653;28;20021;-54
2023/06/04 03:41:43;;;;;;;4.90;1.50;;;;;;;11.30;100.00;102356.69;5044386;28;20040;-63
2023/06/04 03:44:08;;;;;;;2.38;1.70;;;;;;;11.33;100.00;102356.66;5044766;28;20655;-56
2023/06/04 03:46:33;;;;;;;3.67;1.80;;;;;;;11.32;100.00;102357.53;5045032;28;20032;-58
2023/06/04 03:48:59;;;;;;;2.72;1.60;;;;;;;11.31;100.00;102363.69;5044693;28;20070;-58
2023/06/04 03:51:25;;;;;;;4.68;2.05;;;;;;;11.39;100.00;102360.97;5044514;28;20491;-59
2023/06/04 03:53:50;;;;;;;3.55;1.48;;;;;;;11.32;100.00;102368.06;5044095;28;20032;-54
2023/06/04 03:56:15;;;;;;;4.55;1.77;;;;;;;11.29;100.00;102357.56;5044530;28;20497;-55
2023/06/04 03:58:41;;;;;;;3.60;1.80;;;;;;;11.33;100.00;102359.28;5043937;28;20108;-61
2023/06/04 04:01:06;;;;;;;5.40;2.00;;;;;;;11.38;100.00;102354.81;5044471;28;20125;-57
2023/06/04 04:03:34;;;;;;;2.67;1.50;;;;;;;11.41;100.00;102363.59;5044211;28;20029;-60
2023/06/04 04:06:00;;;;;;;3.13;1.58;;;;;;;11.40;100.00;102368.00;5044585;28;20047;-54
2023/06/04 04:08:26;;;;;;;4.80;1.60;;;;;;;11.42;100.00;102363.56;5026416;28;20100;-59
2023/06/04 04:10:51;;;;;;;7.35;2.40;;;;;;;11.44;100.00;102367.03;5044123;28;20052;-55
2023/06/04 04:13:18;;;;;;;2.92;1.60;;;;;;;11.52;100.00;102359.03;5044324;28;20075;-60
2023/06/04 04:15:43;;;;;;;4.10;1.50;;;;;;;11.62;100.00;102360.66;5043636;28;20041;-58
2023/06/04 04:18:10;;;;;;;4.63;2.13;;;;;;;11.61;100.00;102364.19;5044680;28;20025;-59
2023/06/04 04:20:35;;;;;;;1.85;1.45;;;;;;;11.68;100.00;102362.31;5044521;28;20024;-56
2023/06/04 04:23:01;;;;;;;4.20;1.70;;;;;;;11.73;100.00;102364.91;5044114;28;20036;-59
2023/06/04 04:25:27;;;;;;;5.63;1.80;;;;;;;11.70;100.00;102359.66;5044303;28;20407;-59
2023/06/04 04:27:52;;;;;;;2.95;1.67;;;;;;;11.72;100.00;102355.25;5044462;28;20028;-55
2023/06/04 04:30:18;;;;;;;3.50;1.52;;;;;;;11.78;100.00;102357.81;5043231;28;20060;-58
2023/06/04 04:32:48;;;;;;;4.53;1.40;;;;;;;11.88;100.00;102361.16;5044326;28;20064;-58
2023/06/04 04:35:14;;;;;;;4.00;1.85;;;;;;;11.93;100.00;102356.72;5044047;28;20066;-60
2023/06/04 04:37:40;;;;;;;3.55;1.48;;;;;;;11.99;100.00;102358.38;5044510;28;20025;-57
2023/06/04 04:40:09;;;;;;;2.90;1.50;;;;;;;11.97;100.00;102352.22;5044247;28;20033;-57
2023/06/04 04:42:35;;;;;;;3.28;1.73;;;;;;;12.06;100.00;102367.94;5043784;28;20021;-60
2023/06/04 04:45:00;;;;;;;3.15;1.55;;;;;;;12.16;100.00;102367.84;5043547;28;20032;-57
2023/06/04 04:47:25;;;;;;;2.17;1.70;;;;;;;12.11;100.00;102358.22;5043946;28;20029;-57
2023/06/04 04:49:51;;;;;;;5.10;1.75;;;;;;;12.25;100.00;102363.25;5043589;28;20033;-59
2023/06/04 04:52:16;;;;;;;2.70;1.60;;;;;;;12.36;100.00;102365.75;5043979;28;20025;-59
2023/06/04 04:54:41;;;;;;;4.80;1.95;;;;;;;12.38;100.00;102358.63;5044461;28;20021;-57
2023/06/04 04:57:07;;;;;;;3.22;1.90;;;;;;;12.42;100.00;102355.94;5043996;28;20070;-60
2023/06/04 04:59:32;;;;;;;1.65;1.20;;;;;;;12.57;100.00;102355.69;5042925;28;20037;-60
2023/06/04 05:01:58;;;;;;;1.75;1.50;;;;;;;12.64;100.00;102349.38;5044286;28;20033;-57
2023/06/04 05:04:23;;;;;;;2.17;1.40;;;;;;;12.57;100.00;102358.31;5046435;28;20030;-58
2023/06/04 05:06:48;;;;;;;2.92;2.08;;;;;;;12.75;100.00;102354.47;5047723;28;20611;-60
2023/06/04 05:09:15;;;;;;;2.60;1.40;;;;;;;12.89;100.00;102354.19;5047604;28;20493;-58
2023/06/04 05:11:41;;;;;;;2.22;1.67;;;;;;;12.92;100.00;102360.34;5048036;28;20341;-55
2023/06/04 05:14:07;;;;;;;2.88;1.73;;;;;;;12.86;100.00;102367.47;5046738;28;20021;-60
2023/06/04 05:16:35;;;;;;;2.58;1.60;;;;;;;13.04;100.00;102362.75;5047301;28;20167;-59
2023/06/04 05:19:01;;;;;;;4.57;1.67;;;;;;;13.07;100.00;102356.53;5047407;28;20028;-60
2023/06/04 05:21:28;;;;;;;2.80;1.48;;;;;;;13.16;100.00;102359.00;5047447;28;20025;-57
2023/06/04 05:23:54;;;;;;;2.60;1.60;;;;;;;13.25;100.00;102361.41;5047423;28;20032;-58
2023/06/04 05:26:22;;;;;;;3.83;1.65;;;;;;;13.24;100.00;102366.75;5047854;28;20025;-55
2023/06/04 05:28:48;;;;;;;5.03;1.65;;;;;;;13.38;100.00;102362.06;5046158;28;20018;-60
2023/06/04 05:31:15;;;;;;;4.72;1.70;;;;;;;13.53;100.00;102365.31;5047412;28;20036;-57
2023/06/04 05:33:41;;;;;;;4.22;1.75;;;;;;;13.51;100.00;102364.44;5047218;28;20383;-57
2023/06/04 05:36:06;;;;;;;4.45;1.55;;;;;;;13.62;100.00;102367.75;5047083;28;20043;-56
2023/06/04 05:38:32;;;;;;;5.53;1.77;;;;;;;13.78;100.00;102372.69;5047360;28;20468;-58
2023/06/04 05:40:58;;;;;;;5.40;2.08;;;;;;;13.80;100.00;102372.66;5047064;28;20328;-58
2023/06/04 05:43:23;;;;;;;3.80;1.85;;;;;;;13.82;99.91;102370.84;5046702;28;20468;-58
2023/06/04 05:45:49;;;;;;;2.60;1.33;;;;;;;14.01;99.13;102371.28;5046902;28;20114;-54
2023/06/04 05:48:15;;;;;;;3.53;1.70;;;;;;;14.00;98.67;102374.84;5047028;28;20021;-55
2023/06/04 05:50:41;;;;;;;5.45;1.85;;;;;;;14.06;97.60;102381.78;5047290;28;20025;-55
2023/06/04 05:53:06;;;;;;;4.13;1.52;;;;;;;14.14;96.76;102378.03;5046910;28;20028;-57
2023/06/04 05:55:32;;;;;;;3.13;1.58;;;;;;;14.28;96.58;102379.47;5046576;28;20040;-59
2023/06/04 05:57:57;;;;;;;9.10;2.00;;;;;;;14.24;96.67;102376.00;5046606;28;20511;-58
2023/06/04 06:00:23;;;;;;;6.07;1.80;;;;;;;14.32;96.00;102380.25;5045960;28;20017;-58
2023/06/04 06:02:52;;;;;;;4.97;1.50;;;;;;;14.39;95.32;102385.38;5046539;28;20279;-56
2023/06/04 06:05:20;;;;;;;;;;;;;;;14.50;95.20;102386.88;5046879;28;20028;-57
2023/06/04 06:07:46;;;;;;;4.53;1.60;;;;;;;14.39;95.93;102389.81;5046844;28;20349;-57
2023/06/04 06:10:12;;;;;;;5.68;1.50;;;;;;;14.31;95.12;102379.41;5046697;28;20263;-59
2023/06/04 06:12:38;;;;;;;5.38;1.60;;;;;;;14.36;95.42;102377.50;5047092;28;20392;-53
2023/06/04 06:15:04;;;;;;;3.63;1.50;;;;;;;14.53;93.46;102378.84;5044404;28;20039;-59
2023/06/04 06:17:30;;;;;;;5.07;1.50;;;;;;;14.74;92.86;102381.84;5046616;28;20110;-56
2023/06/04 06:19:55;;;;;;;4.93;1.30;;;;;;;14.65;92.46;102381.19;5045723;28;20590;-58
2023/06/04 06:22:21;;;;;;;6.30;1.40;;;;;;;14.86;91.80;102380.66;5046462;28;20021;-59
2023/06/04 06:24:50;;;;;;;5.45;1.42;;;;;;;14.98;90.53;102380.34;5045936;28;20395;-58
2023/06/04 06:27:15;;;;;;;4.85;1.23;;;;;;;14.98;90.98;102377.69;5046353;28;20017;-55
2023/06/04 06:29:41;;;;;;;5.18;1.38;;;;;;;15.00;89.62;102388.25;5010980;28;20043;-58
2023/06/04 06:32:07;;;;;;;1.60;1.20;;;;;;;15.16;88.78;102389.56;5046025;28;20032;-55
2023/06/04 06:34:32;;;;;;;3.00;1.38;;;;;;;15.06;86.15;102382.78;5045760;28;20028;-57
2023/06/04 06:36:58;;;;;;;2.75;1.35;;;;;;;15.23;85.48;102390.25;5045999;28;20305;-57
2023/06/04 06:39:23;;;;;;;3.28;1.30;;;;;;;15.34;82.03;102387.28;5046061;28;20017;-60
2023/06/04 06:41:49;;;;;;;4.32;1.35;;;;;;;15.26;80.44;102390.16;5045639;28;20032;-56
2023/06/04 06:44:14;;;;;;;2.13;1.25;;;;;;;15.46;79.87;102396.69;5045454;28;20040;-58
2023/06/04 06:46:40;;;;;;;6.40;1.38;;;;;;;15.35;78.99;102396.13;5028207;28;20036;-55
2023/06/04 06:49:05;;;;;;;3.65;1.15;;;;;;;15.44;78.56;102400.31;5045339;28;20025;-56
2023/06/04 06:51:30;;;;;;;2.15;1.20;;;;;;;15.50;79.49;102398.31;5045646;28;20167;-57
2023/06/04 06:53:56;;;;;;;4.22;1.20;;;;;;;15.72;77.78;102392.38;5045982;28;20021;-57
2023/06/04 06:56:21;;;;;;;5.00;1.40;;;;;;;15.73;76.32;102396.75;5045372;28;20031;-59
2023/06/04 06:58:47;;;;;;;2.65;1.30;;;;;;;15.68;76.44;102401.31;5044762;28;20032;-55
2023/06/04 07:01:13;;;;;;;1.88;1.10;;;;;;;15.96;74.71;102399.59;5045390;28;20376;-62
2023/06/04 07:03:39;;;;;;;2.95;1.10;;;;;;;16.01;74.32;102403.88;5045321;28;20142;-58
2023/06/04 07:06:05;;;;;;;3.72;1.30;;;;;;;16.12;74.32;102400.00;5045583;28;20039;-57
2023/06/04 07:08:31;;;;;;;4.18;1.17;;;;;;;16.25;74.51;102393.38;5045585;28;20035;-56
2023/06/04 07:10:56;;;;;;;5.55;1.38;;;;;;;16.41;74.39;102393.72;5045183;28;20391;-55
2023/06/04 07:13:22;;;;;;;1.60;1.00;;;;;;;16.44;74.28;102394.56;5026668;28;20025;-57
2023/06/04 07:15:47;;;;;;;4.63;1.40;;;;;;;16.47;73.31;102403.31;5044996;28;20064;-59
2023/06/04 07:18:13;;;;;;;3.55;1.45;;;;;;;16.22;73.45;102397.94;5027032;28;20395;-61
2023/06/04 07:20:38;;;;;;;2.63;1.33;;;;;;;16.42;74.37;102405.25;5046069;28;20510;-55
2023/06/04 07:23:03;;;;;;;2.70;1.48;;;;;;;16.32;72.62;102398.50;5045153;28;20128;-57
2023/06/04 07:25:29;;;;;;;6.47;1.73;;;;;;;16.16;73.59;102405.19;5045207;28;20496;-57
2023/06/04 07:27:57;;;;;;;3.15;1.60;;;;;;;16.20;73.85;102397.09;5043353;28;20025;-58
2023/06/04 07:30:23;;;;;;;4.38;1.10;;;;;;;16.28;74.04;102395.06;5044832;28;20017;-57
2023/06/04 07:32:49;;;;;;;3.63;1.73;;;;;;;16.43;72.44;102396.31;5044907;28;20471;-59
2023/06/04 07:35:15;;;;;;;5.55;1.33;;;;;;;16.56;72.53;102402.13;5044907;28;20333;-55
2023/06/04 07:37:41;;;;;;;3.90;1.13;;;;;;;16.42;72.46;102402.59;5045194;28;20040;-58
2023/06/04 07:40:07;;;;;;;5.03;1.20;;;;;;;16.76;72.19;102406.75;5044529;28;20049;-57
2023/06/04 07:42:32;;;;;;;3.75;1.65;;;;;;;16.80;71.69;102402.19;5044933;28;20029;-60
2023/06/04 07:44:58;;;;;;;5.20;1.20;;;;;;;16.61;70.33;102401.94;5043647;28;20028;-58
2023/06/04 07:47:23;;;;;;;3.70;1.30;;;;;;;16.86;70.18;102399.28;5044700;28;20021;-56
2023/06/04 07:49:48;;;;;;;4.00;1.10;;;;;;;17.02;69.95;102401.41;5044048;28;20028;-58
2023/06/04 07:52:14;;;;;;;2.92;1.17;;;;;;;17.14;69.11;102392.13;5044619;28;20096;-56
2023/06/04 07:54:41;;;;;;;4.15;1.20;;;;;;;17.29;69.73;102396.00;5045008;28;20029;-58
2023/06/04 07:57:07;;;;;;;1.50;1.20;;;;;;;17.41;69.37;102403.56;5044403;28;20025;-57
2023/06/04 07:59:32;;;;;;;4.05;1.80;;;;;;;17.53;69.62;102399.56;5043763;28;20020;-59
2023/06/04 08:01:57;;;;;;;2.17;1.20;;;;;;;17.66;70.17;102399.94;5044092;28;20060;-57
2023/06/04 08:04:23;;;;;;;2.63;1.13;;;;;;;17.51;71.57;102404.06;5026677;28;20021;-61
2023/06/04 08:06:49;;;;;;;2.63;1.30;;;;;;;17.68;71.73;102399.88;5044266;28;20337;-58
2023/06/04 08:09:15;;;;;;;4.25;1.40;;;;;;;17.77;75.27;102398.63;5044733;28;20025;-56
2023/06/04 08:11:42;;;;;;;3.13;1.50;;;;;;;17.83;76.64;102402.84;5026249;28;20079;-60
2023/06/04 08:14:07;;;;;;;5.82;1.63;;;;;;;17.59;79.15;102411.75;5044012;28;20486;-59
2023/06/04 08:16:32;;;;;;;3.67;1.73;;;;;;;17.28;79.84;102403.13;5043998;28;20100;-56
2023/06/04 08:18:58;;;;;;;4.50;1.60;;;;;;;17.29;79.43;102414.66;5044095;28;20052;-57
2023/06/04 08:21:26;;;;;;;4.43;1.60;;;;;;;17.72;79.33;102408.59;5044300;28;20065;-59
2023/06/04 08:23:52;;;;;;;5.22;1.98;;;;;;;17.62;78.20;102413.44;5044056;28;20040;-59
2023/06/04 08:26:19;;;;;;;4.75;1.42;;;;;;;17.79;78.30;102404.78;5043952;28;20032;-58
2023/06/04 08:28:44;;;;;;;8.93;1.67;;;;;;;18.00;76.29;102415.53;5043439;28;20021;-59
2023/06/04 08:31:10;;;;;;;5.88;1.73;;;;;;;17.98;76.96;102406.69;5043772;28;20054;-58
2023/06/04 08:33:35;;;;;;;4.70;1.58;;;;;;;18.02;76.83;102409.19;5044626;28;20033;-55
2023/06/04 08:36:01;;;;;;;7.75;2.08;;;;;;;18.14;76.80;102405.19;5043776;28;20078;-60
2023/06/04 08:38:26;;;;;;;3.58;1.40;;;;;;;17.93;77.28;102409.53;5045073;28;20262;-56
2023/06/04 08:40:53;;;;;;;6.10;1.73;;;;;;;17.95;77.95;102407.69;5048127;28;20101;-56
2023/06/04 08:43:19;;;;;;;2.30;1.35;;;;;;;17.96;77.41;102413.88;5047237;28;20103;-57
2023/06/04 08:45:48;;;;;;;7.05;1.63;;;;;;;18.33;77.60;102412.41;5047920;28;20017;-58
2023/06/04 08:48:14;;;;;;;9.35;2.17;;;;;;;18.19;77.88;102416.50;5048669;28;20020;-54
2023/06/04 08:50:44;;;;;;;4.32;1.75;;;;;;;17.92;78.55;102424.69;5048149;28;20029;-60
2023/06/04 08:53:11;;;;;;;8.20;2.08;;;;;;;17.70;80.38;102419.31;5030988;28;20035;-56
2023/06/04 08:55:37;;;;;;;3.40;1.48;;;;;;;17.74;81.32;102414.75;5030033;28;20426;-54
2023/06/04 08:58:07;;;;;;;6.47;1.73;;;;;;;17.76;83.18;102412.91;5030174;28;20160;-55
2023/06/04 09:00:33;;;;;;;4.22;1.60;;;;;;;17.89;82.24;102413.28;5049655;28;20082;-53
2023/06/04 09:03:02;;;;;;;4.28;1.85;;;;;;;18.08;79.24;102423.19;5048194;28;20024;-60
2023/06/04 09:05:29;;;;;;;7.00;1.83;;;;;;;18.31;79.73;102414.28;5047903;28;20104;-54
2023/06/04 09:07:55;;;;;;;5.72;1.70;;;;;;;18.52;78.80;102416.97;5047504;28;20446;-55
2023/06/04 09:10:22;;;;;;;4.40;1.90;;;;;;;18.65;78.94;102420.84;5029840;28;20059;-62
2023/06/04 09:12:48;;;;;;;1.92;1.30;;;;;;;18.74;78.63;102421.38;5028976;28;20078;-56
2023/06/04 09:15:14;;;;;;;4.68;1.40;;;;;;;18.57;81.09;102430.97;5047375;28;20048;-58
2023/06/04 09:17:39;;;;;;;4.63;1.50;;;;;;;18.77;79.79;102427.47;5047873;28;20041;-56
2023/06/04 09:20:08;;;;;;;7.22;1.80;;;;;;;18.91;81.19;102424.16;5047223;28;20025;-56
2023/06/04 09:22:37;;;;;;;4.05;1.45;;;;;;;18.89;76.45;102420.72;5047285;28;20060;-57
2023/06/04 09:25:08;;;;;;;8.32;1.85;;;;;;;19.16;75.26;102430.25;5047068;28;20031;-60
2023/06/04 09:27:40;;;;;;;4.13;1.38;;;;;;;18.73;75.91;102423.19;5046657;28;20033;-61
2023/06/04 09:30:07;;;;;;;6.22;1.67;;;;;;;18.69;74.74;102422.44;5047208;28;20021;-59
2023/06/04 09:32:32;;;;;;;4.05;1.67;;;;;;;18.40;76.14;102423.69;5046931;28;20029;-62
2023/06/04 09:35:15;;;;;;;5.50;1.77;;;;;;;18.80;75.87;102431.78;5046876;28;20087;-57
2023/06/04 09:37:42;;;;;;;3.58;1.73;;;;;;;18.97;73.65;102432.84;5047387;28;20542;-59
2023/06/04 09:40:08;;;;;;;3.03;1.60;;;;;;;19.03;74.85;102432.59;5047270;28;20025;-60
2023/06/04 09:42:54;;;;;;;3.22;1.63;;;;;;;19.34;74.99;102431.22;5046661;28;20031;-57
2023/06/04 09:45:30;;;;;;;4.85;1.63;;;;;;;19.43;69.72;102424.59;5046866;28;20112;-55
2023/06/04 09:47:55;;;;;;;5.78;1.77;;;;;;;19.12;73.76;102432.22;5047050;28;20435;-56
2023/06/04 09:50:36;;;;;;;6.15;1.50;;;;;;;19.15;71.83;102437.41;5045297;28;20020;-59
2023/06/04 09:53:12;;;;;;;5.63;1.75;;;;;;;18.98;74.47;102435.47;5047049;28;21003;-55
2023/06/04 09:55:38;;;;;;;4.38;1.52;;;;;;;19.39;69.77;102429.19;5047354;28;20107;-61
2023/06/04 09:58:04;;;;;;;4.90;1.60;;;;;;;19.32;71.70;102427.75;5046254;28;20021;-56
2023/06/04 10:00:29;;;;;;;4.63;1.92;;;;;;;19.21;67.56;102430.94;5029226;28;20525;-55
2023/06/04 10:03:01;;;;;;;4.57;1.52;;;;;;;19.68;67.26;102429.66;5046628;28;20063;-60
2023/06/04 10:05:32;;;;;;;8.85;1.70;;;;;;;19.90;65.19;102428.59;5046561;28;20104;-60
2023/06/04 10:08:00;;;;;;;4.10;1.75;;;;;;;19.53;65.18;102433.03;5046698;28;20028;-58
2023/06/04 10:10:26;;;;;;;2.28;1.58;;;;;;;19.91;66.49;102425.00;5028816;28;20110;-58
2023/06/04 10:13:02;;;;;;;3.00;1.30;;;;;;;20.13;65.26;102433.81;5045465;28;20017;-62
2023/06/04 10:15:27;;;;;;;3.63;1.55;;;;;;;19.88;61.28;102430.50;5028772;28;20120;-61
2023/06/04 10:17:54;;;;;;;4.95;1.80;;;;;;;20.17;61.61;102428.22;5028398;28;20112;-55
2023/06/04 10:20:20;;;;;;;4.50;1.50;;;;;;;19.99;61.86;102430.00;5028517;28;20442;-59
2023/06/04 10:22:46;;;;;;;4.90;1.50;;;;;;;20.07;65.45;102432.31;5028499;28;20017;-58
2023/06/04 10:25:12;;;;;;;3.17;1.27;;;;;;;20.20;62.15;102429.91;5028681;28;20454;-61
2023/06/04 10:27:38;;;;;;;2.10;1.50;;;;;;;20.29;62.30;102424.06;5045982;28;20039;-58
2023/06/04 10:30:05;;;;;;;3.03;1.30;;;;;;;20.28;63.29;102426.81;5028145;28;20037;-59
2023/06/04 10:32:30;;;;;;;3.50;1.60;;;;;;;20.56;59.95;102428.97;5045935;28;20112;-55
2023/06/04 10:34:57;;;;;;;4.55;1.00;;;;;;;20.49;60.75;102419.53;5046047;28;20100;-55
2023/06/04 10:37:25;;;;;;;7.90;1.30;;;;;;;20.95;59.57;102428.84;5046002;28;20325;-55
2023/06/04 10:39:52;;;;;;;5.03;1.55;;;;;;;20.77;60.28;102422.59;5027759;28;20091;-60
2023/06/04 10:42:18;;;;;;;4.07;1.45;;;;;;;20.53;59.62;102421.09;5045496;28;20020;-64
2023/06/04 10:44:48;;;;;;;3.25;1.35;;;;;;;20.61;59.43;102423.38;5045699;28;20021;-59
2023/06/04 10:47:23;;;;;;;3.22;1.50;;;;;;;20.76;60.77;102431.56;5046012;28;20028;-62
2023/06/04 10:49:53;;;;;;;5.75;1.40;;;;;;;20.84;60.22;102429.34;5011280;28;20021;-59
2023/06/04 10:52:19;;;;;;;10.05;1.42;;;;;;;20.41;58.74;102430.63;5045749;28;20426;-57
2023/06/04 10:54:46;;;;;;;5.18;1.70;;;;;;;20.52;58.75;102430.06;5045068;28;20412;-58
2023/06/04 10:57:18;;;;;;;3.88;1.85;;;;;;;21.00;60.05;102425.88;5046199;28;20025;-56
2023/06/04 11:00:00;;;;;;;2.55;1.30;;;;;;;21.35;57.43;102425.81;5045725;28;20028;-56
2023/06/04 11:02:26;;;;;;;3.08;1.27;;;;;;;21.62;55.62;102424.34;5045020;28;20036;-56
2023/06/04 11:05:09;;;;;;;1.75;1.10;;;;;;;21.87;58.12;102426.53;5027712;28;20039;-57
2023/06/04 11:07:45;;;;;;;2.95;1.42;;;;;;;21.81;57.61;102426.88;5045340;28;20027;-56
2023/06/04 11:10:12;;;;;;;3.60;1.30;;;;;;;21.44;57.58;102428.00;5045738;28;20029;-58
2023/06/04 11:12:44;;;;;;;3.75;1.50;;;;;;;21.10;55.88;102429.78;5044394;28;20566;-61
2023/06/04 11:15:10;;;;;;;3.35;1.65;;;;;;;21.34;57.99;102432.09;5045322;28;20514;-60
2023/06/04 11:17:36;;;;;;;4.43;1.40;;;;;;;21.61;56.24;102433.34;5045876;28;20017;-58
2023/06/04 11:20:02;;;;;;;3.55;1.40;;;;;;;21.87;54.51;102421.19;5044666;28;20659;-60